Time;durP1;ratioP1;P1;durP2;ratioP2;P2;SDS_P1;SDS_P2;PMS_P1;PMS_P2;Temp;Humidity;BMP_temperature;BMP_pressure;BME280_temperature;BME280_humidity;BME280_pressure;Samples;Min_cycle;Max_cycle;Signal;HPM_P1;HPM_P2
2023/11/11 00:11:30;;;;;;;2.57;2.23;;;3.40;94.70;;;;;;5972225;23;20249;-87
2023/11/11 07:57:06;;;;;;;3.90;1.90;;;7.30;87.50;;;;;;6016066;23;21199;-89
2023/11/11 07:59:35;;;;;;;1.45;1.30;;;7.30;85.90;;;;;;4973354;28;20212;-88
2023/11/11 08:02:02;;;;;;;2.25;1.50;;;7.30;86.20;;;;;;4976323;28;20178;-90
2023/11/11 08:04:29;;;;;;;2.28;1.20;;;7.30;85.10;;;;;;4962026;28;20471;-89
2023/11/11 08:06:56;;;;;;;1.23;1.13;;;7.30;83.90;;;;;;5800853;23;20241;-90
2023/11/11 08:09:23;;;;;;;2.10;1.77;;;7.30;83.80;;;;;;5330388;23;20211;-92
2023/11/11 08:11:50;;;;;;;2.22;2.03;;;7.30;84.90;;;;;;5734243;23;21177;-90
2023/11/11 08:16:54;;;;;;;1.80;1.20;;;7.40;81.30;;;;;;5027112;23;20202;-91
2023/11/11 08:27:07;;;;;;;1.35;1.25;;;7.90;78.50;;;;;;5289147;23;20238;-95
2023/11/11 08:39:54;;;;;;;2.63;2.20;;;8.60;68.60;;;;;;5732728;23;20293;-91
2023/11/11 08:44:58;;;;;;;1.63;1.17;;;8.90;54.60;;;;;;5372951;23;20244;-93
2023/11/11 08:50:03;;;;;;;1.70;1.60;;;8.70;54.80;;;;;;5480371;23;20520;-94
2023/11/11 08:52:37;;;;;;;2.80;1.77;;;8.90;54.20;;;;;;5765626;23;20215;-93
2023/11/11 08:55:06;;;;;;;1.88;1.10;;;9.10;54.10;;;;;;4987872;28;20278;-92
2023/11/11 08:57:33;;;;;;;0.98;0.93;;;9.50;48.00;;;;;;4982975;28;20200;-94
2023/11/11 09:00:00;;;;;;;1.38;1.15;;;9.50;46.80;;;;;;4987275;28;20196;-91
2023/11/11 09:02:27;;;;;;;1.75;1.63;;;9.40;44.80;;;;;;5617296;23;20215;-89
2023/11/11 09:04:55;;;;;;;1.67;1.50;;;9.20;46.30;;;;;;5492021;23;20218;-93
2023/11/11 09:07:22;;;;;;;1.20;1.10;;;9.10;47.60;;;;;;4981094;28;20268;-92
2023/11/11 09:33:30;;;;;;;1.95;0.90;;;10.50;30.20;;;;;;4963744;28;20232;-95
2023/11/11 09:36:00;;;;;;;1.13;0.98;;;10.10;30.50;;;;;;4982519;28;20205;-95
2023/11/11 09:43:44;;;;;;;1.55;1.17;;;10.50;26.90;;;;;;4991336;28;20243;-94
2023/11/11 09:46:16;;;;;;;1.30;1.20;;;10.40;26.30;;;;;;4996713;28;20196;-95
2023/11/11 09:48:43;;;;;;;1.75;1.02;;;10.60;27.40;;;;;;4988177;28;20206;-94
2023/11/11 09:51:12;;;;;;;1.70;1.02;;;10.70;25.70;;;;;;4990159;28;20221;-93
2023/11/11 10:05:10;;;;;;;3.20;1.40;;;10.10;29.30;;;;;;4972977;28;20234;-95
2023/11/11 10:07:37;;;;;;;1.60;1.30;;;10.50;27.70;;;;;;4997740;28;20212;-93
2023/11/11 10:10:08;;;;;;;5.55;1.40;;;10.30;28.70;;;;;;4993512;28;20208;-94
2023/11/11 10:12:39;;;;;;;1.10;1.08;;;10.10;28.50;;;;;;4996279;28;20274;-93
2023/11/11 10:18:08;;;;;;;4.82;1.20;;;9.60;31.90;;;;;;4994266;28;20204;-93
2023/11/11 10:20:36;;;;;;;1.73;1.10;;;9.20;35.30;;;;;;4991585;28;20180;-92
2023/11/11 10:23:02;;;;;;;1.80;1.20;;;9.00;37.30;;;;;;4993872;28;20238;-93
2023/11/11 10:25:31;;;;;;;2.20;1.40;;;8.80;37.70;;;;;;4998494;28;20206;-94
2023/11/11 10:28:01;;;;;;;2.13;1.40;;;8.70;37.90;;;;;;4992705;28;20200;-93
2023/11/11 10:30:30;;;;;;;1.90;1.40;;;8.70;40.70;;;;;;4991284;28;20724;-93
2023/11/11 10:33:01;;;;;;;1.80;1.40;;;8.60;40.00;;;;;;4997673;28;20231;-94
2023/11/11 10:35:30;;;;;;;2.15;1.30;;;8.80;40.60;;;;;;4995177;28;20192;-93
2023/11/11 10:37:57;;;;;;;1.52;1.40;;;8.80;40.40;;;;;;4988223;28;20204;-94
2023/11/11 10:40:26;;;;;;;2.28;1.50;;;8.90;39.30;;;;;;4991485;28;20258;-94
2023/11/11 10:42:52;;;;;;;1.77;1.42;;;9.10;40.00;;;;;;4995504;28;20212;-93
2023/11/11 10:45:20;;;;;;;1.60;1.50;;;9.20;39.40;;;;;;4992311;28;20203;-91
2023/11/11 10:47:48;;;;;;;2.17;1.40;;;9.20;38.80;;;;;;4991242;28;20287;-91
2023/11/11 10:50:15;;;;;;;1.60;1.35;;;9.10;39.90;;;;;;4989294;28;20510;-92
2023/11/11 10:52:50;;;;;;;2.33;1.52;;;9.30;37.80;;;;;;4990626;28;20311;-92
2023/11/11 10:55:21;;;;;;;2.50;1.45;;;9.40;39.00;;;;;;4993126;28;20559;-91
2023/11/11 10:57:47;;;;;;;1.92;1.40;;;9.30;37.20;;;;;;4978571;28;20571;-92
2023/11/11 11:00:19;;;;;;;2.33;1.80;;;9.30;38.00;;;;;;4991132;28;20207;-92
2023/11/11 11:02:48;;;;;;;1.58;1.40;;;9.10;37.90;;;;;;4990632;28;20616;-94
2023/11/11 11:05:20;;;;;;;1.77;1.40;;;9.00;38.60;;;;;;4994408;28;20200;-93
2023/11/11 11:07:56;;;;;;;1.75;1.27;;;8.90;40.30;;;;;;4990641;28;20219;-93
2023/11/11 11:13:34;;;;;;;1.88;1.10;;;9.00;40.20;;;;;;4994014;28;20255;-93
2023/11/11 11:16:02;;;;;;;2.72;1.40;;;9.50;39.00;;;;;;4994754;28;20214;-93
2023/11/11 11:18:31;;;;;;;3.65;1.60;;;9.60;36.20;;;;;;4990357;28;20283;-93
2023/11/11 11:21:03;;;;;;;2.78;1.88;;;9.50;35.50;;;;;;4991318;28;20201;-93
2023/11/11 11:23:37;;;;;;;2.05;1.45;;;9.50;36.10;;;;;;4972017;28;20192;-93
2023/11/11 11:26:05;;;;;;;1.92;1.58;;;9.50;34.90;;;;;;4995667;28;20233;-91
2023/11/11 11:54:53;;;;;;;2.88;1.30;;;10.40;26.70;;;;;;5906971;23;20239;-93
2023/11/11 11:57:19;;;;;;;3.15;1.30;;;10.70;28.00;;;;;;5008294;28;20202;-92
2023/11/11 11:59:46;;;;;;;1.52;1.30;;;11.00;28.40;;;;;;4995035;28;20206;-93
2023/11/11 12:02:18;;;;;;;1.40;1.30;;;11.30;24.70;;;;;;5001435;28;20238;-93
2023/11/11 13:06:53;;;;;;;1.60;1.40;;;9.60;29.20;;;;;;5590793;23;20280;-93
2023/11/11 13:09:21;;;;;;;2.28;1.70;;;9.60;28.40;;;;;;5274472;23;20231;-94
2023/11/11 13:11:51;;;;;;;2.72;1.35;;;9.70;28.90;;;;;;5005488;28;20250;-94
2023/11/11 13:14:36;;;;;;;1.80;1.60;;;9.90;27.90;;;;;;5004151;28;20228;-94
2023/11/11 13:17:04;;;;;;;1.83;1.20;;;9.90;26.40;;;;;;5002775;28;20207;-93
2023/11/11 13:19:34;;;;;;;1.35;1.13;;;9.90;26.70;;;;;;4997246;28;20226;-94
2023/11/11 14:18:11;;;;;;;2.05;1.40;;;8.70;33.90;;;;;;4979189;28;20221;-91
2023/11/11 14:20:39;;;;;;;1.85;1.70;;;8.60;36.30;;;;;;4961876;28;20204;-91
2023/11/11 14:23:06;;;;;;;2.22;1.27;;;8.70;36.40;;;;;;4982011;28;20211;-93
2023/11/11 14:25:35;;;;;;;2.15;1.30;;;8.50;37.90;;;;;;4984717;28;20251;-91
2023/11/11 14:28:03;;;;;;;1.92;1.20;;;8.60;38.30;;;;;;4979529;28;20248;-92
2023/11/11 14:30:30;;;;;;;1.23;1.13;;;8.60;35.90;;;;;;4968373;28;20197;-91
2023/11/11 14:32:58;;;;;;;3.40;1.40;;;8.70;34.90;;;;;;4997988;28;20207;-92
2023/11/11 14:38:32;;;;;;;1.38;1.27;;;8.70;33.80;;;;;;4982952;28;20208;-93
2023/11/11 14:41:03;;;;;;;2.28;1.20;;;8.70;35.10;;;;;;4994519;28;20208;-93
2023/11/11 14:43:29;;;;;;;2.63;1.42;;;8.60;34.90;;;;;;4994630;28;20212;-93
2023/11/11 14:45:59;;;;;;;2.05;1.55;;;8.50;35.60;;;;;;5000250;28;20189;-93
2023/11/11 14:48:25;;;;;;;2.17;1.48;;;8.40;37.20;;;;;;4990278;28;20201;-94
2023/11/11 14:53:37;;;;;;;5.05;1.90;;;8.40;42.60;;;;;;4975662;28;20252;-91
2023/11/11 14:56:06;;;;;;;1.85;1.60;;;8.20;45.10;;;;;;4970775;28;20843;-90
2023/11/11 14:58:34;;;;;;;2.40;1.80;;;8.20;46.90;;;;;;4962675;28;20208;-90
2023/11/11 15:01:04;;;;;;;3.00;1.77;;;8.10;46.80;;;;;;4970458;28;20205;-92
2023/11/11 15:03:33;;;;;;;2.65;1.50;;;8.10;46.80;;;;;;4974722;28;20209;-92
2023/11/11 15:09:33;;;;;;;4.38;1.70;;;8.00;46.70;;;;;;4952314;28;20223;-92
2023/11/11 15:12:00;;;;;;;2.50;1.80;;;7.90;51.60;;;;;;4971044;28;20219;-92
2023/11/11 15:14:27;;;;;;;1.75;1.65;;;7.80;53.70;;;;;;4973793;28;20220;-92
2023/11/11 15:16:56;;;;;;;2.35;2.15;;;7.80;56.20;;;;;;4970760;28;20223;-92
2023/11/11 15:19:31;;;;;;;4.80;1.90;;;7.80;57.50;;;;;;4972154;28;20196;-93
2023/11/11 15:22:10;;;;;;;3.45;2.00;;;7.80;58.40;;;;;;4978275;28;20201;-91
2023/11/11 15:27:47;;;;;;;2.72;1.92;;;7.60;64.30;;;;;;5475033;23;20935;-93
2023/11/11 15:30:17;;;;;;;3.00;2.38;;;7.50;64.70;;;;;;4957776;28;20212;-91
2023/11/11 15:32:44;;;;;;;4.32;1.85;;;7.60;62.30;;;;;;4957163;28;20370;-94
2023/11/11 15:35:13;;;;;;;3.28;1.90;;;7.50;64.40;;;;;;4952802;28;20245;-93
2023/11/11 15:37:42;;;;;;;1.85;1.65;;;7.40;64.40;;;;;;4954145;28;20197;-93
2023/11/11 15:40:09;;;;;;;2.47;1.80;;;7.40;63.10;;;;;;4958729;28;20198;-94
2023/11/11 15:42:37;;;;;;;2.88;1.85;;;7.40;63.30;;;;;;4939897;29;20552;-93
2023/11/11 15:45:06;;;;;;;2.05;1.73;;;7.30;64.00;;;;;;4952313;28;20260;-93
2023/11/11 15:47:33;;;;;;;6.63;5.95;;;7.30;63.90;;;;;;4958788;28;20205;-92
2023/11/11 15:50:00;;;;;;;2.40;1.92;;;7.40;61.80;;;;;;4958909;28;20782;-93
2023/11/11 15:52:27;;;;;;;2.53;1.90;;;7.30;62.50;;;;;;4960754;28;20224;-93
2023/11/11 15:54:56;;;;;;;3.15;1.98;;;7.30;62.30;;;;;;4954015;28;20237;-93
2023/11/11 15:57:23;;;;;;;3.05;1.92;;;7.30;59.70;;;;;;4954762;28;20205;-93
2023/11/11 15:59:50;;;;;;;2.70;1.70;;;7.30;58.70;;;;;;4964951;28;20319;-94
2023/11/11 16:02:17;;;;;;;2.83;2.00;;;7.20;57.00;;;;;;4967107;28;20201;-93
2023/11/11 16:04:44;;;;;;;2.50;1.67;;;7.10;57.40;;;;;;4962818;28;20622;-93
2023/11/11 16:07:11;;;;;;;2.58;1.80;;;7.00;58.50;;;;;;4971690;28;20189;-93
2023/11/11 16:09:37;;;;;;;2.35;1.88;;;6.90;59.20;;;;;;4971903;28;20230;-92
2023/11/11 16:12:07;;;;;;;3.45;2.05;;;6.90;60.00;;;;;;4958106;28;20948;-93
2023/11/11 16:14:35;;;;;;;2.25;1.70;;;6.90;59.70;;;;;;4962794;28;20225;-93
2023/11/11 16:17:02;;;;;;;3.90;1.77;;;6.90;60.00;;;;;;4965619;28;20212;-93
2023/11/11 16:19:29;;;;;;;3.45;1.88;;;6.90;59.30;;;;;;4963286;28;20310;-92
2023/11/11 16:21:56;;;;;;;2.90;1.92;;;6.90;59.50;;;;;;4962944;28;20212;-94
2023/11/11 16:24:23;;;;;;;6.07;2.30;;;6.80;60.40;;;;;;4965962;28;20205;-94
2023/11/11 16:26:50;;;;;;;3.30;2.10;;;6.70;61.50;;;;;;4966700;28;20193;-92
2023/11/11 16:29:18;;;;;;;3.90;2.10;;;6.70;62.30;;;;;;4956050;28;20202;-93
2023/11/11 16:31:45;;;;;;;3.72;2.35;;;6.60;63.90;;;;;;4962351;28;20197;-93
2023/11/11 16:34:13;;;;;;;3.50;2.83;;;6.60;64.40;;;;;;4957314;28;20605;-91
2023/11/11 16:36:41;;;;;;;3.88;2.33;;;6.50;65.80;;;;;;4958887;28;20265;-90
2023/11/11 16:39:13;;;;;;;3.97;2.00;;;6.40;67.60;;;;;;4957574;28;20289;-91
2023/11/11 16:41:40;;;;;;;2.88;1.90;;;6.40;65.70;;;;;;4971879;28;20206;-90
2023/11/11 16:44:07;;;;;;;2.65;1.80;;;6.50;67.00;;;;;;4957117;28;20220;-91
2023/11/11 16:46:37;;;;;;;2.60;1.98;;;6.50;63.90;;;;;;4957261;28;20201;-89
2023/11/11 16:49:04;;;;;;;3.25;1.98;;;6.50;65.60;;;;;;4963342;28;20209;-92
2023/11/11 16:51:31;;;;;;;3.07;1.90;;;6.50;65.30;;;;;;4960350;28;20213;-91
2023/11/11 16:53:58;;;;;;;3.58;2.10;;;6.50;66.00;;;;;;4960371;28;20682;-91
2023/11/11 16:56:25;;;;;;;3.60;2.17;;;6.50;65.80;;;;;;4958150;28;20205;-92
2023/11/11 16:58:52;;;;;;;3.80;2.30;;;6.40;65.80;;;;;;4959615;28;20201;-90
2023/11/11 17:01:19;;;;;;;3.05;2.20;;;6.40;66.60;;;;;;4949394;28;20642;-91
2023/11/11 17:03:48;;;;;;;2.60;2.20;;;6.40;67.60;;;;;;4956212;28;20244;-92
2023/11/11 17:06:16;;;;;;;4.35;2.33;;;6.30;68.60;;;;;;4957824;28;20575;-91
2023/11/11 17:08:43;;;;;;;2.73;2.10;;;6.20;71.00;;;;;;4960226;28;20237;-92
2023/11/11 17:11:10;;;;;;;5.70;2.37;;;6.20;71.00;;;;;;4957067;28;20260;-91
2023/11/11 17:13:39;;;;;;;3.43;2.33;;;6.20;71.00;;;;;;4956931;28;20237;-91
2023/11/11 17:16:06;;;;;;;3.67;2.07;;;6.20;71.00;;;;;;4959879;28;20225;-91
2023/11/11 17:18:34;;;;;;;5.13;2.13;;;6.20;71.00;;;;;;4963275;28;20208;-91
2023/11/11 17:21:04;;;;;;;3.87;2.20;;;6.10;70.90;;;;;;4965921;28;20214;-92
2023/11/11 17:23:31;;;;;;;3.03;2.10;;;6.10;70.90;;;;;;4953072;28;20252;-90
2023/11/11 17:25:58;;;;;;;3.07;2.30;;;6.10;70.90;;;;;;4951315;28;20205;-90
2023/11/11 17:28:28;;;;;;;3.53;2.13;;;6.10;73.10;;;;;;4954083;29;20264;-90
2023/11/11 17:30:56;;;;;;;2.80;2.07;;;6.10;72.70;;;;;;4956437;28;20562;-89
2023/11/11 17:33:23;;;;;;;2.60;1.90;;;6.00;74.60;;;;;;4952078;28;20643;-86
2023/11/11 17:35:49;;;;;;;5.33;2.30;;;6.00;75.60;;;;;;4956093;28;20221;-89
2023/11/11 17:38:18;;;;;;;6.27;2.37;;;6.00;76.20;;;;;;4952546;28;20202;-88
2023/11/11 17:40:45;;;;;;;2.73;2.13;;;5.90;76.80;;;;;;4950235;28;20209;-87
2023/11/11 17:43:12;;;;;;;3.33;2.20;;;5.90;77.40;;;;;;4943550;28;20289;-87
2023/11/11 17:45:39;;;;;;;2.90;2.13;;;5.90;77.90;;;;;;4947145;28;20217;-86
2023/11/11 17:48:06;;;;;;;4.47;2.50;;;6.00;77.40;;;;;;4951535;28;20213;-89
2023/11/11 17:50:34;;;;;;;3.10;2.10;;;5.90;77.90;;;;;;4969146;28;20196;-88
2023/11/11 17:53:04;;;;;;;4.27;2.33;;;5.80;78.60;;;;;;4959298;28;20251;-90
2023/11/11 17:58:18;;;;;;;4.83;2.17;;;5.80;79.10;;;;;;4974567;28;20189;-92
2023/11/11 18:00:48;;;;;;;3.43;2.33;;;5.70;80.40;;;;;;4964569;28;20195;-92
2023/11/11 18:03:15;;;;;;;4.10;2.30;;;5.60;82.00;;;;;;4980216;28;20216;-91
2023/11/11 18:05:44;;;;;;;5.20;2.30;;;5.50;84.50;;;;;;4952448;28;20249;-89
2023/11/11 18:08:12;;;;;;;4.60;2.30;;;5.40;85.20;;;;;;4959027;28;20190;-89
2023/11/11 18:10:40;;;;;;;2.73;2.10;;;5.40;86.40;;;;;;4954542;28;20210;-88
2023/11/11 18:13:10;;;;;;;4.10;2.43;;;5.30;87.20;;;;;;4951793;28;20231;-87
2023/11/11 18:15:39;;;;;;;4.80;2.40;;;5.30;89.10;;;;;;4941993;29;20232;-88
2023/11/11 18:18:06;;;;;;;3.57;2.43;;;5.20;89.10;;;;;;4950454;28;20217;-91
2023/11/11 18:20:33;;;;;;;4.17;2.30;;;5.30;89.10;;;;;;4956149;28;20206;-91
2023/11/11 18:23:05;;;;;;;4.40;2.40;;;5.30;89.10;;;;;;4966625;28;20209;-93
2023/11/11 18:25:32;;;;;;;2.60;2.00;;;5.40;89.50;;;;;;4966510;28;20556;-92
2023/11/11 18:30:41;;;;;;;3.30;2.30;;;5.50;89.40;;;;;;4974930;28;20239;-94
2023/11/11 18:38:19;;;;;;;3.43;2.40;;;5.70;89.40;;;;;;5152888;23;20261;-95
2023/11/11 18:45:58;;;;;;;3.87;2.87;;;5.70;89.40;;;;;;5953207;23;20175;-94
2023/11/11 18:48:25;;;;;;;2.40;2.00;;;5.70;90.20;;;;;;5040086;23;20232;-95
2023/11/11 18:50:53;;;;;;;5.20;2.50;;;5.80;90.10;;;;;;4986186;28;20252;-93
2023/11/11 18:53:20;;;;;;;2.57;2.00;;;5.70;90.40;;;;;;4987310;28;20203;-93
2023/11/11 18:55:47;;;;;;;2.63;2.10;;;5.60;90.80;;;;;;4986066;28;20216;-95
2023/11/11 19:11:18;;;;;;;3.13;2.40;;;5.30;92.40;;;;;;5796500;23;21153;-94
2023/11/11 19:13:45;;;;;;;3.50;2.37;;;5.30;92.90;;;;;;1552820;23;20398;-92
2023/11/11 19:18:47;;;;;;;4.90;2.57;;;5.20;93.50;;;;;;5840563;23;20621;-94
2023/11/11 19:21:14;;;;;;;4.00;2.50;;;5.20;93.50;;;;;;4966911;28;20178;-94
2023/11/11 19:23:41;;;;;;;3.17;2.87;;;5.10;93.80;;;;;;5384885;23;20204;-94
2023/11/11 19:26:08;;;;;;;5.30;2.83;;;5.10;94.10;;;;;;5113865;23;20224;-94
2023/11/11 19:31:11;;;;;;;4.67;2.80;;;5.10;94.10;;;;;;5428970;23;20215;-93
2023/11/11 19:38:49;;;;;;;3.67;2.30;;;5.00;94.50;;;;;;5422353;23;20232;-93
2023/11/11 19:41:16;;;;;;;4.60;2.60;;;4.90;94.60;;;;;;5417264;23;20224;-94
2023/11/11 19:46:23;;;;;;;3.83;2.80;;;4.90;94.90;;;;;;5877204;23;21295;-94
2023/11/11 20:12:09;;;;;;;3.73;2.73;;;4.70;95.00;;;;;;5939504;23;21186;-92
